createdAt,value
2018-11-28T00:00:30.514Z,23.13
2018-11-28T00:03:01.591Z,19.63
2018-11-28T00:05:30.904Z,18.83
2018-11-28T00:07:59.881Z,19.37
2018-11-28T00:10:29.442Z,21.63
2018-11-28T00:12:58.536Z,19.73
2018-11-28T00:15:27.536Z,18.33
2018-11-28T00:17:56.727Z,18.60
2018-11-28T00:20:25.748Z,22.22
2018-11-28T00:22:54.917Z,19.90
2018-11-28T00:25:23.936Z,18.42
2018-11-28T00:27:53.015Z,18.83
2018-11-28T00:30:23.999Z,17.42
2018-11-28T00:32:53.335Z,20.80
2018-11-28T00:35:23.239Z,21.43
2018-11-28T00:37:52.515Z,20.08
2018-11-28T00:40:22.515Z,22.10
2018-11-28T00:42:51.490Z,20.50
2018-11-28T00:45:22.921Z,22.00
2018-11-28T00:47:51.967Z,22.30
2018-11-28T00:50:23.119Z,20.90
2018-11-28T00:52:52.234Z,21.33
2018-11-28T00:55:21.295Z,22.07
2018-11-28T00:57:50.280Z,21.17
2018-11-28T01:00:21.889Z,20.30
2018-11-28T01:02:51.035Z,19.57
2018-11-28T01:05:20.233Z,19.60
2018-11-28T01:07:52.136Z,22.87
2018-11-28T01:10:22.312Z,23.30
2018-11-28T01:12:52.110Z,21.17
2018-11-28T01:15:21.414Z,22.23
2018-11-28T01:17:50.391Z,21.13
2018-11-28T01:20:21.863Z,19.20
2018-11-28T01:22:50.844Z,23.90
2018-11-28T01:25:20.488Z,22.80
2018-11-28T01:27:50.587Z,22.73
2018-11-28T01:30:21.502Z,19.47
2018-11-28T01:32:50.654Z,21.40
2018-11-28T01:35:20.434Z,21.03
2018-11-28T01:37:49.434Z,20.00
2018-11-28T01:40:21.379Z,18.27
2018-11-28T01:42:50.332Z,20.37
2018-11-28T01:45:20.714Z,20.33
2018-11-28T01:47:49.688Z,19.03
2018-11-28T01:50:19.561Z,21.20
2018-11-28T01:52:48.904Z,21.03
2018-11-28T01:55:19.152Z,19.80
2018-11-28T01:57:48.227Z,20.80
2018-11-28T02:00:20.231Z,19.20
2018-11-28T02:02:51.497Z,21.03
2018-11-28T02:05:20.508Z,22.20
2018-11-28T02:07:49.504Z,21.67
2018-11-28T02:10:18.504Z,18.07
2018-11-28T02:12:47.591Z,20.93
2018-11-28T02:15:17.740Z,22.67
2018-11-28T02:17:46.840Z,21.60
2018-11-28T02:20:16.667Z,20.30
2018-11-28T02:22:46.425Z,22.17
2018-11-28T02:25:16.688Z,21.57
2018-11-28T02:27:46.400Z,20.33
2018-11-28T02:30:19.237Z,22.03
2018-11-28T02:32:49.163Z,21.63
2018-11-28T02:35:18.911Z,19.67
2018-11-28T02:37:48.790Z,20.70
2018-11-28T02:40:18.621Z,18.67
2018-11-28T02:42:48.636Z,20.23
2018-11-28T02:45:18.711Z,22.37
2018-11-28T02:47:47.698Z,21.27
2018-11-28T02:50:16.892Z,23.00
2018-11-28T02:52:45.987Z,21.30
2018-11-28T02:55:15.926Z,22.00
2018-11-28T02:57:46.092Z,23.20
2018-11-28T03:00:19.431Z,23.17
2018-11-28T03:02:49.428Z,22.03
2018-11-28T03:05:18.521Z,21.60
2018-11-28T03:07:47.558Z,19.40
2018-11-28T03:10:18.757Z,22.57
2018-11-28T03:12:47.793Z,21.20
2018-11-28T03:15:21.469Z,21.70
2018-11-28T03:17:50.449Z,22.90
2018-11-28T03:20:19.443Z,21.20
2018-11-28T03:22:48.667Z,18.33
2018-11-28T03:25:17.900Z,23.93
2018-11-28T03:27:46.990Z,21.17
2018-11-28T03:30:16.446Z,22.43
2018-11-28T03:32:45.666Z,25.57
2018-11-28T03:35:16.145Z,25.40
2018-11-28T03:37:45.241Z,18.87
2018-11-28T03:40:14.262Z,21.60
2018-11-28T03:42:43.478Z,20.53
2018-11-28T03:45:13.446Z,22.60
2018-11-28T03:47:43.062Z,24.30
2018-11-28T03:50:13.039Z,22.17
2018-11-28T03:52:42.154Z,23.27
2018-11-28T03:55:13.915Z,21.10
2018-11-28T03:57:44.729Z,22.33
2018-11-28T04:00:14.942Z,22.37
2018-11-28T04:02:44.126Z,21.80
2018-11-28T04:05:13.266Z,25.20
2018-11-28T04:07:42.364Z,24.63
2018-11-28T04:10:13.187Z,23.37
2018-11-28T04:12:43.001Z,21.33
2018-11-28T04:15:16.343Z,21.50
2018-11-28T04:17:45.412Z,22.53
2018-11-28T04:20:16.402Z,20.97
2018-11-28T04:22:45.528Z,23.00
2018-11-28T04:25:15.400Z,22.37
2018-11-28T04:27:44.439Z,22.40
2018-11-28T04:30:17.301Z,23.97
2018-11-28T04:32:46.932Z,21.37
2018-11-28T04:35:15.994Z,22.50
2018-11-28T04:37:45.496Z,23.40
2018-11-28T04:40:19.470Z,22.80
2018-11-28T04:42:48.996Z,24.53
2018-11-28T04:45:21.000Z,25.80
2018-11-28T04:47:50.776Z,20.57
2018-11-28T04:50:19.808Z,25.43
2018-11-28T04:52:48.807Z,24.63
2018-11-28T04:55:18.674Z,23.57
2018-11-28T04:57:48.046Z,23.93
2018-11-28T05:00:21.006Z,23.53
2018-11-28T05:02:50.461Z,23.67
2018-11-28T05:05:19.527Z,22.30
2018-11-28T05:07:49.371Z,23.60
2018-11-28T05:10:22.626Z,24.17
2018-11-28T05:12:52.126Z,23.47
2018-11-28T05:15:22.220Z,25.53
2018-11-28T05:17:53.473Z,22.83
2018-11-28T05:20:31.321Z,26.10
2018-11-28T05:23:00.515Z,22.47
2018-11-28T05:25:29.587Z,23.23
2018-11-28T05:27:59.191Z,24.97
2018-11-28T05:30:29.114Z,25.00
2018-11-28T05:32:58.178Z,23.57
2018-11-28T05:35:39.003Z,23.53
2018-11-28T05:38:12.587Z,24.60
2018-11-28T05:40:42.815Z,22.90
2018-11-28T05:43:11.904Z,24.10
2018-11-28T05:45:40.984Z,22.47
2018-11-28T05:48:10.649Z,24.33
2018-11-28T05:50:39.803Z,24.60
2018-11-28T05:53:08.827Z,24.40
2018-11-28T05:55:38.069Z,24.20
2018-11-28T05:58:07.071Z,24.03
2018-11-28T06:00:38.281Z,21.40
2018-11-28T06:03:11.262Z,24.03
2018-11-28T06:05:41.196Z,22.93
2018-11-28T06:08:10.176Z,24.00
2018-11-28T06:10:39.206Z,22.07
2018-11-28T06:13:08.195Z,23.47
2018-11-28T06:15:37.286Z,24.30
2018-11-28T06:18:07.524Z,22.77
2018-11-28T06:20:36.624Z,20.87
2018-11-28T06:23:06.394Z,23.10
2018-11-28T06:25:35.430Z,22.93
2018-11-28T06:28:04.597Z,25.77
2018-11-28T06:30:33.601Z,25.07
2018-11-28T06:33:02.783Z,23.70
2018-11-28T06:35:31.769Z,25.17
2018-11-28T06:38:00.772Z,24.37
2018-11-28T06:40:29.808Z,23.93
2018-11-28T06:42:58.851Z,25.07
2018-11-28T06:45:27.892Z,24.03
2018-11-28T06:47:57.094Z,24.87
2018-11-28T06:50:26.159Z,23.70
2018-11-28T06:52:56.262Z,23.57
2018-11-28T06:55:25.285Z,24.67
2018-11-28T06:57:54.300Z,24.27
2018-11-28T07:00:23.662Z,24.47
2018-11-28T07:02:53.584Z,23.50
2018-11-28T07:05:23.080Z,26.17
2018-11-28T07:07:52.902Z,25.20
2018-11-28T07:10:22.940Z,24.83
2018-11-28T07:12:52.325Z,25.17
2018-11-28T07:15:23.375Z,26.93
2018-11-28T07:17:52.598Z,25.00
2018-11-28T07:20:21.701Z,26.37
2018-11-28T07:22:50.812Z,24.93
2018-11-28T07:25:20.002Z,24.90
2018-11-28T07:27:49.281Z,24.43
2018-11-28T07:30:22.423Z,23.70
2018-11-28T07:32:55.977Z,26.27
2018-11-28T07:35:25.151Z,24.40
2018-11-28T07:37:54.085Z,25.80
2018-11-28T07:40:24.610Z,23.43
2018-11-28T07:42:55.924Z,24.00
2018-11-28T07:45:25.033Z,25.30
2018-11-28T07:47:54.231Z,23.27
2018-11-28T07:50:23.305Z,25.67
2018-11-28T07:52:53.321Z,25.07
2018-11-28T07:55:22.343Z,24.20
2018-11-28T07:57:51.352Z,24.43
2018-11-28T08:00:20.791Z,24.57
2018-11-28T08:02:49.757Z,23.20
2018-11-28T08:05:18.906Z,23.23
2018-11-28T08:07:47.887Z,23.60
2018-11-28T08:10:20.992Z,23.30
2018-11-28T08:12:52.027Z,22.90
2018-11-28T08:15:20.988Z,25.00
2018-11-28T08:17:50.259Z,22.73
2018-11-28T08:20:19.253Z,22.97
2018-11-28T08:22:48.401Z,23.73
2018-11-28T08:25:18.512Z,22.53
2018-11-28T08:27:48.677Z,23.30
2018-11-28T08:30:19.856Z,23.90
2018-11-28T08:32:48.767Z,22.10
2018-11-28T08:35:17.828Z,21.20
2018-11-28T08:37:46.801Z,21.47
2018-11-28T08:40:20.029Z,25.70
2018-11-28T08:42:49.079Z,22.67
2018-11-28T08:45:19.020Z,25.10
2018-11-28T08:47:49.080Z,23.07
2018-11-28T08:50:21.129Z,22.60
2018-11-28T08:52:50.179Z,22.60
2018-11-28T08:55:19.339Z,24.33
2018-11-28T08:57:48.378Z,22.20
2018-11-28T09:00:18.426Z,24.43
2018-11-28T09:02:51.318Z,22.17
2018-11-28T09:05:20.367Z,25.40
2018-11-28T09:07:49.422Z,25.00
2018-11-28T09:10:19.308Z,22.00
2018-11-28T09:12:48.959Z,25.57
2018-11-28T09:15:20.145Z,23.27
2018-11-28T09:17:49.177Z,22.00
2018-11-28T09:20:18.341Z,22.47
2018-11-28T09:22:47.555Z,24.63
2018-11-28T09:25:18.371Z,22.73
2018-11-28T09:27:49.678Z,24.70
2018-11-28T09:30:19.602Z,24.20
2018-11-28T09:32:53.727Z,25.43
2018-11-28T09:35:27.870Z,23.27
2018-11-28T09:37:58.022Z,22.70
2018-11-28T09:40:27.651Z,22.07
2018-11-28T09:42:58.800Z,24.60
2018-11-28T09:45:28.263Z,23.07
2018-11-28T09:47:57.425Z,23.73
2018-11-28T09:50:26.761Z,25.23
2018-11-28T09:52:55.718Z,21.20
2018-11-28T09:55:26.022Z,23.97
2018-11-28T09:57:55.219Z,25.83
2018-11-28T10:00:25.215Z,22.70
2018-11-28T10:02:55.234Z,23.13
2018-11-28T10:05:28.431Z,21.47
2018-11-28T10:07:57.572Z,23.20
2018-11-28T10:10:26.700Z,22.73
2018-11-28T10:12:55.931Z,21.70
2018-11-28T10:15:25.851Z,22.30
2018-11-28T10:17:54.846Z,23.37
2018-11-28T10:20:24.239Z,23.77
2018-11-28T10:22:53.514Z,22.80
2018-11-28T10:25:24.494Z,22.33
2018-11-28T10:27:57.047Z,21.40
2018-11-28T10:30:29.358Z,22.73
2018-11-28T10:32:58.671Z,21.23
2018-11-28T10:35:28.936Z,24.73
2018-11-28T10:37:58.023Z,22.97
2018-11-28T10:40:27.141Z,21.50
2018-11-28T10:42:58.281Z,20.43
2018-11-28T10:45:28.963Z,23.00
2018-11-28T10:47:58.811Z,21.63
2018-11-28T10:50:27.855Z,22.80
2018-11-28T10:52:56.892Z,23.53
2018-11-28T10:55:26.631Z,21.80
2018-11-28T10:57:55.719Z,22.30
2018-11-28T11:00:33.300Z,22.73
2018-11-28T11:03:11.060Z,22.10
2018-11-28T11:05:45.706Z,23.27
2018-11-28T11:08:20.333Z,22.07
2018-11-28T11:10:54.782Z,21.83
2018-11-28T11:13:31.215Z,21.67
2018-11-28T11:16:00.564Z,21.60
2018-11-28T11:18:29.666Z,20.43
2018-11-28T11:20:58.910Z,21.03
2018-11-28T11:23:27.927Z,20.97
2018-11-28T11:25:56.956Z,20.57
2018-11-28T11:28:25.976Z,22.87
2018-11-28T11:30:55.355Z,22.60
2018-11-28T11:33:24.842Z,23.80
2018-11-28T11:35:53.928Z,21.10
2018-11-28T11:38:23.101Z,22.30
2018-11-28T11:40:52.019Z,24.30
2018-11-28T11:43:21.058Z,21.70
2018-11-28T11:45:50.227Z,19.90
2018-11-28T11:48:19.493Z,20.60
2018-11-28T11:50:48.647Z,20.70
2018-11-28T11:53:17.695Z,20.63
2018-11-28T11:55:46.834Z,18.73
2018-11-28T11:58:15.941Z,20.27
2018-11-28T12:00:46.710Z,18.57
2018-11-28T12:03:15.827Z,19.93
2018-11-28T12:05:49.652Z,20.47
2018-11-28T12:08:18.749Z,20.33
2018-11-28T12:10:48.921Z,20.37
2018-11-28T12:13:18.115Z,19.37
2018-11-28T12:15:47.088Z,19.13
2018-11-28T12:18:16.242Z,18.80
2018-11-28T12:20:51.013Z,18.20
2018-11-28T12:23:20.352Z,18.13
2018-11-28T12:25:49.479Z,19.23
2018-11-28T12:28:18.528Z,17.87
2018-11-28T12:30:47.863Z,18.40
2018-11-28T12:33:17.087Z,18.20
2018-11-28T12:35:46.118Z,19.03
2018-11-28T12:38:15.150Z,16.83
2018-11-28T12:40:44.171Z,18.20
2018-11-28T12:43:13.541Z,17.30
2018-11-28T12:45:45.839Z,19.23
2018-11-28T12:48:14.853Z,18.43
2018-11-28T12:50:44.019Z,17.90
2018-11-28T12:53:13.949Z,17.10
2018-11-28T12:55:43.016Z,17.17
2018-11-28T12:58:14.567Z,18.73
2018-11-28T13:00:44.392Z,18.57
2018-11-28T13:03:14.987Z,17.90
2018-11-28T13:05:44.291Z,16.20
2018-11-28T13:08:13.508Z,17.93
2018-11-28T13:10:43.009Z,15.63
2018-11-28T13:13:12.455Z,17.40
2018-11-28T13:15:41.788Z,16.80
2018-11-28T13:18:11.330Z,17.37
2018-11-28T13:20:41.543Z,15.60
2018-11-28T13:23:13.734Z,17.00
2018-11-28T13:25:42.832Z,15.97
2018-11-28T13:28:11.932Z,16.67
2018-11-28T13:30:40.968Z,16.23
2018-11-28T13:33:10.099Z,17.30
2018-11-28T13:35:39.154Z,16.80
2018-11-28T13:38:11.554Z,16.73
2018-11-28T13:40:41.045Z,17.40
2018-11-28T13:43:10.058Z,16.27
2018-11-28T13:45:40.648Z,15.83
2018-11-28T13:48:09.819Z,15.70
2018-11-28T13:50:38.871Z,17.40
2018-11-28T13:53:13.720Z,16.00
2018-11-28T13:56:30.078Z,16.20
2018-11-28T13:58:15.640Z,16.10
2018-11-28T14:00:44.790Z,16.93
2018-11-28T14:03:14.135Z,16.53
2018-11-28T14:05:43.124Z,16.33
2018-11-28T14:08:12.129Z,17.37
2018-11-28T14:10:41.386Z,15.97
2018-11-28T14:13:10.449Z,16.50
2018-11-28T14:15:39.672Z,16.10
2018-11-28T14:18:17.394Z,16.80
2018-11-28T14:20:46.392Z,15.80
2018-11-28T14:23:15.504Z,16.70
2018-11-28T14:25:44.651Z,15.43
2018-11-28T14:28:13.923Z,16.47
2018-11-28T14:30:43.876Z,15.80
2018-11-28T14:33:12.861Z,16.47
2018-11-28T14:35:41.917Z,16.70
2018-11-28T14:38:10.977Z,16.63
2018-11-28T14:40:40.160Z,15.67
2018-11-28T14:43:09.238Z,15.40
2018-11-28T14:45:39.295Z,16.47
2018-11-28T14:48:08.445Z,16.53
2018-11-28T14:50:37.572Z,16.60
2018-11-28T14:53:06.653Z,16.20
2018-11-28T14:55:37.556Z,16.77
2018-11-28T14:58:08.909Z,18.00
2018-11-28T15:00:38.380Z,16.67
2018-11-28T15:03:09.288Z,15.43
2018-11-28T15:07:56.689Z,14.70
2018-11-28T15:10:39.495Z,16.73
2018-11-28T15:13:09.763Z,15.60
2018-11-28T15:15:39.775Z,15.63
2018-11-28T15:18:08.987Z,14.30
2018-11-28T15:20:38.016Z,16.13
2018-11-28T15:23:07.196Z,15.03
2018-11-28T15:25:36.304Z,14.10
2018-11-28T15:28:05.368Z,14.33
2018-11-28T15:30:35.508Z,15.80
2018-11-28T15:33:05.596Z,17.27
2018-11-28T15:35:34.680Z,18.10
2018-11-28T15:38:03.865Z,16.40
2018-11-28T15:40:33.944Z,16.10
2018-11-28T15:43:03.406Z,17.10
2018-11-28T15:45:32.732Z,17.80
2018-11-28T15:48:01.833Z,16.87
2018-11-28T15:50:30.916Z,17.43
2018-11-28T15:52:59.963Z,17.07
2018-11-28T15:55:29.073Z,17.43
2018-11-28T15:57:58.234Z,16.47
2018-11-28T16:00:27.519Z,16.03
2018-11-28T16:02:57.835Z,17.17
2018-11-28T16:05:29.073Z,16.80
2018-11-28T16:07:58.064Z,19.67
2018-11-28T16:10:32.958Z,18.10
2018-11-28T16:13:02.087Z,17.20
2018-11-28T16:15:33.524Z,17.53
2018-11-28T16:18:02.613Z,18.37
2018-11-28T16:20:33.877Z,19.60
2018-11-28T16:23:04.673Z,19.03
2018-11-28T16:25:34.513Z,18.83
2018-11-28T16:28:03.492Z,19.40
2018-11-28T16:30:32.480Z,19.00
2018-11-28T16:33:01.708Z,19.33
2018-11-28T16:35:30.917Z,20.00
2018-11-28T16:38:01.142Z,21.00
2018-11-28T16:40:30.346Z,18.77
2018-11-28T16:42:59.463Z,19.30
2018-11-28T16:45:28.543Z,21.50
2018-11-28T16:47:57.690Z,19.70
2018-11-28T16:50:26.832Z,21.17
2018-11-28T16:52:56.119Z,21.90
2018-11-28T16:55:25.144Z,20.83
2018-11-28T16:57:54.777Z,22.80
2018-11-28T17:00:26.297Z,20.80
2018-11-28T17:02:55.859Z,21.10
2018-11-28T17:05:25.072Z,22.37
2018-11-28T17:07:54.468Z,20.47
2018-11-28T17:10:25.711Z,20.00
2018-11-28T17:12:55.539Z,20.43
2018-11-28T17:15:24.621Z,22.63
2018-11-28T17:17:53.663Z,21.40
2018-11-28T17:20:23.909Z,22.10
2018-11-28T17:22:54.176Z,21.60
2018-11-28T17:25:24.492Z,22.43
2018-11-28T17:27:54.724Z,24.80
2018-11-28T17:30:25.829Z,25.60
2018-11-28T17:32:54.942Z,25.97
2018-11-28T17:35:23.976Z,25.93
2018-11-28T17:37:53.574Z,24.67
2018-11-28T17:40:24.023Z,26.37
2018-11-28T17:42:54.379Z,26.97
2018-11-28T17:45:23.906Z,25.33
2018-11-28T17:47:53.016Z,26.60
2018-11-28T17:50:23.084Z,25.07
2018-11-28T17:53:06.626Z,24.53
2018-11-28T17:55:39.652Z,26.20
2018-11-28T17:58:09.803Z,25.70
2018-11-28T18:00:40.779Z,24.53
2018-11-28T18:03:09.821Z,24.63
2018-11-28T18:05:39.093Z,25.37
2018-11-28T18:08:08.365Z,25.80
2018-11-28T18:10:39.632Z,25.53
2018-11-28T18:13:16.371Z,25.73
2018-11-28T18:15:47.678Z,24.90
2018-11-28T18:18:18.380Z,26.30
2018-11-28T18:20:50.203Z,27.10
2018-11-28T18:23:16.620Z,26.00
2018-11-28T18:25:46.250Z,26.03
2018-11-28T18:28:15.452Z,26.23
2018-11-28T18:30:46.279Z,24.83
2018-11-28T18:33:15.418Z,29.37
2018-11-28T18:35:44.676Z,24.83
2018-11-28T18:38:13.890Z,24.70
2018-11-28T18:40:43.273Z,24.13
2018-11-28T18:43:12.722Z,25.83
2018-11-28T18:45:43.826Z,21.97
2018-11-28T18:48:13.133Z,23.70
2018-11-28T18:50:42.267Z,25.87
2018-11-28T18:53:11.341Z,23.10
2018-11-28T18:55:40.475Z,22.27
2018-11-28T18:58:10.607Z,23.43
2018-11-28T19:00:39.781Z,22.17
2018-11-28T19:03:08.996Z,22.93
2018-11-28T19:05:38.040Z,24.20
2018-11-28T19:08:07.935Z,22.03
2018-11-28T19:10:36.978Z,22.00
2018-11-28T19:13:06.109Z,21.43
2018-11-28T19:15:35.230Z,22.20
2018-11-28T19:18:04.435Z,20.90
2018-11-28T19:20:33.488Z,22.87
2018-11-28T19:23:02.537Z,19.27
2018-11-28T19:25:31.547Z,20.70
2018-11-28T19:28:00.639Z,20.70
2018-11-28T19:30:32.072Z,20.93
2018-11-28T19:33:01.221Z,21.90
2018-11-28T19:35:30.424Z,20.20
2018-11-28T19:37:59.890Z,20.10
2018-11-28T19:40:36.078Z,17.83
2018-11-28T19:43:06.439Z,17.60
2018-11-28T19:45:35.721Z,21.40
2018-11-28T19:48:05.087Z,19.57
2018-11-28T19:50:34.919Z,19.33
2018-11-28T19:53:05.286Z,20.30
2018-11-28T19:55:33.316Z,20.50
2018-11-28T19:58:03.510Z,19.80
2018-11-28T20:00:32.767Z,19.17
2018-11-28T20:03:01.880Z,18.40
2018-11-28T20:05:31.005Z,19.83
2018-11-28T20:08:00.090Z,19.50
2018-11-28T20:10:29.926Z,17.80
2018-11-28T20:12:59.000Z,18.97
2018-11-28T20:15:30.432Z,18.30
2018-11-28T20:17:59.514Z,17.87
2018-11-28T20:20:28.692Z,17.40
2018-11-28T20:22:58.320Z,17.40
2018-11-28T20:25:28.878Z,15.80
2018-11-28T20:27:59.115Z,18.20
2018-11-28T20:30:33.483Z,16.20
2018-11-28T20:33:02.798Z,17.03
2018-11-28T20:35:32.027Z,15.70
2018-11-28T20:38:01.012Z,15.00
2018-11-28T20:40:30.169Z,16.27
2018-11-28T20:42:59.176Z,15.40
2018-11-28T20:45:28.291Z,15.00
2018-11-28T20:47:57.452Z,16.10
2018-11-28T20:50:28.351Z,16.07
2018-11-28T20:52:59.069Z,15.57
2018-11-28T20:55:28.229Z,14.47
2018-11-28T20:57:57.533Z,14.83
2018-11-28T21:00:26.885Z,14.40
2018-11-28T21:02:57.061Z,15.50
2018-11-28T21:05:26.446Z,14.53
2018-11-28T21:07:55.723Z,14.23
2018-11-28T21:10:30.300Z,15.17
2018-11-28T21:12:59.543Z,14.87
2018-11-28T21:15:28.531Z,14.73
2018-11-28T21:17:57.873Z,14.87
2018-11-28T21:20:27.111Z,16.93
2018-11-28T21:22:58.249Z,17.37
2018-11-28T21:25:27.279Z,16.57
2018-11-28T21:27:57.403Z,15.33
2018-11-28T21:30:26.420Z,14.70
2018-11-28T21:32:55.695Z,13.43
2018-11-28T21:35:26.982Z,13.53
2018-11-28T21:37:57.166Z,14.57
2018-11-28T21:40:26.778Z,13.80
2018-11-28T21:42:58.073Z,13.10
2018-11-28T21:45:27.397Z,14.37
2018-11-28T21:47:56.524Z,14.50
2018-11-28T21:50:25.608Z,13.90
2018-11-28T21:52:54.609Z,13.33
2018-11-28T21:55:24.431Z,14.10
2018-11-28T21:57:53.496Z,15.87
2018-11-28T22:00:24.783Z,12.87
2018-11-28T22:02:53.872Z,12.53
2018-11-28T22:05:23.293Z,15.10
2018-11-28T22:07:52.480Z,14.53
2018-11-28T22:10:24.252Z,14.57
2018-11-28T22:12:54.231Z,15.20
2018-11-28T22:15:23.293Z,15.17
2018-11-28T22:17:54.154Z,15.23
2018-11-28T22:20:24.441Z,14.37
2018-11-28T22:22:54.649Z,14.77
2018-11-28T22:25:27.007Z,12.60
2018-11-28T22:27:56.353Z,13.77
2018-11-28T22:30:27.531Z,14.20
2018-11-28T22:32:57.005Z,13.70
2018-11-28T22:35:26.060Z,14.03
2018-11-28T22:37:55.217Z,13.27
2018-11-28T22:40:25.556Z,13.83
2018-11-28T22:42:54.563Z,12.83
2018-11-28T22:45:25.837Z,12.20
2018-11-28T22:47:54.898Z,12.73
2018-11-28T22:50:23.950Z,12.67
2018-11-28T22:52:54.141Z,12.00
2018-11-28T22:55:23.231Z,11.10
2018-11-28T22:57:52.236Z,11.43
2018-11-28T23:00:30.493Z,12.70
2018-11-28T23:03:06.918Z,12.43
2018-11-28T23:05:44.825Z,12.27
2018-11-28T23:08:15.937Z,12.50
2018-11-28T23:10:45.256Z,12.20
2018-11-28T23:13:15.827Z,12.30
2018-11-28T23:15:45.065Z,12.53
2018-11-28T23:18:14.270Z,11.80
2018-11-28T23:20:43.668Z,12.00
2018-11-28T23:23:12.853Z,10.83
2018-11-28T23:25:41.943Z,12.20
2018-11-28T23:28:11.075Z,12.70
2018-11-28T23:30:40.050Z,11.70
2018-11-28T23:33:09.644Z,11.63
2018-11-28T23:35:38.741Z,11.00
2018-11-28T23:38:08.023Z,10.50
2018-11-28T23:40:37.051Z,9.70
2018-11-28T23:43:06.636Z,10.77
2018-11-28T23:45:35.814Z,10.80
2018-11-28T23:48:05.039Z,11.40
2018-11-28T23:50:34.061Z,11.47
2018-11-28T23:53:04.168Z,11.30
2018-11-28T23:55:33.431Z,10.43
2018-11-28T23:58:02.407Z,10.10
